Skip to main content

NOAA/GLERL Met Station at Muskegon, MI

Previous 3 Hours (2 minute increments)
See also Previous 5 Days (top of hour)
Jump down to Data
Switch to [English][Metric]
Zoom: Click and drag, Pan: shift-click and drag, Unzoom: double-click, Unzoom All






See also 1-day windrose plot


NOAA/GLERL Met Station at Muskegon, MI

Previous 3 Hours (2 minute increments)
See also Previous 5 Days (top of hour only)
Jump up to Graphs
Switch to [English][Metric]
                  Wind  Wind  Wind   Air   Dew   Rel     Sta   PAR
                   Spd   Gst   Dir  Temp    Pt   Hum    Pres uE/m2/
YYYY-MM-DD   EST   kts   kts   deg     F     F     %   in Hg   sec
2019-12-06 01:50  15.2  16.5   276  41.7  38.1  86.9   29.26     2
2019-12-06 01:48  15.7  17.1   279  41.5  38.1  87.5   29.26     2
2019-12-06 01:46  14.6  15.7   275  41.5  38.2  87.6   29.27     2
2019-12-06 01:44  14.6  15.9   275  41.7  38.2  87.0   29.26     2
2019-12-06 01:42  14.6  15.6   275  41.7  38.0  86.6   29.27     2
2019-12-06 01:40  15.0  16.3   275  41.9  38.1  86.3   29.27     2
2019-12-06 01:38  14.4  15.4   274  41.9  38.0  86.0   29.27     2
2019-12-06 01:36  15.6  17.9   272  41.9  38.1  86.3   29.27     2
2019-12-06 01:34  15.0  16.9   273  41.9  38.2  86.4   29.27     2
2019-12-06 01:32  14.4  15.7   270  41.9  38.1  86.3   29.27     2
2019-12-06 01:30  14.4  15.9   272  41.9  38.1  86.2   29.27     2
2019-12-06 01:28  14.8  16.3   268  41.9  37.9  85.6   29.27     2
2019-12-06 01:26  15.4  16.7   271  41.9  38.0  85.9   29.27     2
2019-12-06 01:24  14.6  16.5   272  41.9  38.1  86.2   29.27     2
2019-12-06 01:22  14.8  16.3   267  41.9  38.0  86.0   29.27     2
2019-12-06 01:20  15.7  16.9   269  41.9  38.1  86.3   29.27     2
2019-12-06 01:18  15.6  17.3   266  41.7  38.1  86.8   29.27     2
2019-12-06 01:16  15.0  16.1   268  41.7  38.0  86.5   29.27     2
2019-12-06 01:14  15.2  16.3   263  41.9  38.2  86.4   29.27     2
2019-12-06 01:12  14.8  15.7   266  41.7  37.9  86.2   29.27     2
2019-12-06 01:10  15.9  17.7   264  41.9  38.1  86.1   29.27     2
2019-12-06 01:08  15.2  16.3   261  41.9  38.0  85.7   29.27     2
2019-12-06 01:06  16.5  18.3   263  41.7  37.9  86.1   29.27     2
2019-12-06 01:04  15.6  16.9   258  41.7  37.9  86.0   29.27     2
2019-12-06 01:02  15.2  16.1   257  41.9  38.0  85.9   29.27     2
2019-12-06 01:00  16.1  17.9   259  41.9  37.9  85.4   29.27     2
2019-12-06 00:58  16.1  17.1   257  41.9  37.7  84.9   29.27     2
2019-12-06 00:56  16.1  17.7   254  41.9  37.7  84.7   29.27     2
2019-12-06 00:54  16.7  17.9   254  42.1  37.7  84.3   29.27     2
2019-12-06 00:52  16.5  17.7   255  42.1  37.6  84.1   29.27     2
2019-12-06 00:50  16.7  18.1   253  41.9  37.5  84.2   29.27     2
2019-12-06 00:48  17.7  18.9   251  41.9  37.7  84.8   29.27     2
2019-12-06 00:46  15.6  18.1   251  41.9  37.6  84.6   29.27     2
2019-12-06 00:44  15.9  17.3   250  41.9  37.6  84.5   29.27     2
2019-12-06 00:42  16.1  17.1   251  41.9  37.4  83.8   29.27     2
2019-12-06 00:40  16.5  17.3   246  41.9  37.4  83.9   29.27     2
2019-12-06 00:38  16.1  17.7   249  42.1  37.5  83.7   29.27     2
2019-12-06 00:36  15.4  16.5   245  42.1  37.6  83.8   29.27     2
2019-12-06 00:34  15.6  17.3   247  42.1  37.4  83.4   29.27     2
2019-12-06 00:32  15.7  17.9   246  42.1  37.3  82.9   29.27     2
2019-12-06 00:30  15.9  17.1   245  42.1  37.4  83.4   29.27     2
2019-12-06 00:28  15.4  16.7   245  42.1  37.5  83.5   29.27     2
2019-12-06 00:26  15.2  16.1   243  42.1  37.4  83.4   29.27     2
2019-12-06 00:24  15.4  17.1   243  42.1  37.5  83.7   29.28     2
2019-12-06 00:22  15.2  17.3   243  42.1  37.6  83.8   29.28     2
2019-12-06 00:20  14.8  15.9   242  42.1  37.6  84.0   29.28     2
2019-12-06 00:18  14.4  15.6   241  42.1  37.8  84.5   29.28     2
2019-12-06 00:16  13.8  15.2   240  41.9  37.7  84.7   29.28     2
2019-12-06 00:14  14.4  15.9   239  41.9  37.6  84.6   29.28     2
2019-12-06 00:12  13.6  14.8   237  42.1  37.7  84.3   29.28     2
2019-12-06 00:10  14.0  15.2   236  42.1  37.6  83.9   29.28     2
2019-12-06 00:08  14.2  15.0   235  42.1  37.6  83.8   29.28     2
2019-12-06 00:06  14.2  15.4   234  41.9  37.4  83.8   29.28     2
2019-12-06 00:04  14.4  15.4   232  41.9  37.4  83.8   29.28     2
2019-12-06 00:02  14.2  15.2   234  41.9  37.3  83.5   29.28     2
2019-12-06 00:00  14.6  15.9   231  41.9  37.4  83.9   29.28     2
2019-12-05 23:58  14.6  15.9   234  41.9  37.6  84.4   29.28     2
2019-12-05 23:56  13.8  15.4   233  41.9  37.6  84.4   29.28     2
2019-12-05 23:54  13.6  14.6   233  41.9  37.6  84.5   29.29     2
2019-12-05 23:52  14.0  15.2   233  41.7  37.5  84.8   29.29     2
2019-12-05 23:50  13.0  14.8   231  41.9  37.5  84.1   29.29     2
2019-12-05 23:48  13.2  14.4   234  41.7  37.4  84.3   29.29     2
2019-12-05 23:46  13.0  15.2   232  41.5  37.5  85.4   29.29     2
2019-12-05 23:44  12.6  14.8   232  41.5  37.5  85.3   29.29     2
2019-12-05 23:42  13.0  14.0   229  41.5  37.4  85.2   29.29     2
2019-12-05 23:40  13.2  15.2   230  41.5  37.5  85.3   29.29     2
2019-12-05 23:38  13.0  14.0   228  41.5  37.5  85.4   29.29     2
2019-12-05 23:36  13.4  14.6   229  41.4  37.4  85.8   29.29     2
2019-12-05 23:34  12.8  13.6   228  41.4  37.4  85.7   29.29     2
2019-12-05 23:32  13.2  14.2   227  41.4  37.4  85.7   29.29     2
2019-12-05 23:30  13.0  14.2   228  41.2  37.2  85.5   29.29     2
2019-12-05 23:28  13.4  13.8   224  41.2  37.2  85.6   29.29     2
2019-12-05 23:26  13.8  15.4   223  41.0  37.1  85.8   29.29     2
2019-12-05 23:24  13.6  14.4   224  41.0  37.1  85.7   29.29     2
2019-12-05 23:22  13.6  14.2   223  41.0  37.1  85.9   29.29     2
2019-12-05 23:20  13.0  14.0   222  41.0  37.1  85.9   29.29     2
2019-12-05 23:18  12.6  13.4   222  41.0  37.1  85.9   29.29     2
2019-12-05 23:16  13.2  15.0   222  40.8  37.0  86.2   29.29     2
2019-12-05 23:14  13.0  14.2   221  40.8  37.0  86.1   29.29     2
2019-12-05 23:12  13.0  14.0   218  40.8  36.9  85.8   29.29     2
2019-12-05 23:10  12.6  13.8   217  40.6  36.6  85.2   29.29     2
2019-12-05 23:08  13.0  14.0   217  40.8  36.7  85.0   29.29     2
2019-12-05 23:06  12.6  13.6   218  40.8  36.6  84.7   29.29     2
2019-12-05 23:04  13.2  14.2   218  40.8  36.6  84.6   29.29     2
2019-12-05 23:02  12.4  13.2   218  40.8  36.4  84.1   29.29     2
2019-12-05 23:00  13.8  15.2   216  40.8  36.4  84.2   29.29     2
2019-12-05 22:58  12.8  14.6   214  40.8  36.5  84.4   29.29     2
2019-12-05 22:56  13.0  13.8   215  40.6  36.3  84.4   29.29     2
2019-12-05 22:54  12.8  13.8   215  40.6  36.5  84.9   29.29     2
2019-12-05 22:52  12.4  13.4   216  40.6  36.5  85.0   29.29     2
2019-12-05 22:50  11.7  13.2   213  40.5  36.2  84.5   29.29     2